^^
B2 Weather Station Historical Data
Daily Summary for September 17, 2019 Units:  English    Metric   Both
Daily Weekly Monthly Yearly Custom
  High: Low: Average:
Temperature: 81 °F 60.7 °F 68.6 °F
Dew Point: 72 °F 59 °F 64.7 °F
Humidity: 96% 68% 88%
Wind Speed: 9.2mph 0mph 1.9mph
Wind Gust: 6.3mph - -
Wind- - ESE
Pressure: 30.16 in 30.07 in -
Precipitation: 0 in    
Historical Graphs
 
 
Tabular Data for September 17, 2019
Time Temperature Dew Point Pressure Wind Wind Speed Wind Gust Humidity Rainfall Rate (Hourly) solar
00:00 65.1 °F 63.9 °F 30.09 in Calm     96% 0 in 0.00 W/m2
00:05 65.1 °F 63.9 °F 30.09 in Calm     96% 0 in 0.00 W/m2
00:10 65.1 °F 63.9 °F 30.10 in Calm     96% 0 in 0.00 W/m2
00:15 65.2 °F 64 °F 30.10 in Calm     96% 0 in 0.00 W/m2
00:20 65.1 °F 63.9 °F 30.09 in Calm     96% 0 in 0.00 W/m2
00:25 65.1 °F 63.9 °F 30.10 in ENE 3.5 mph 0.5 mph 96% 0 in 0.00 W/m2
00:30 65.1 °F 63.9 °F 30.10 in ENE 2.3 mph 0.2 mph 96% 0 in 0.00 W/m2
00:35 65.1 °F 63.9 °F 30.10 in Calm     96% 0 in 0.00 W/m2
00:40 65 °F 63.8 °F 30.10 in ENE 3.5 mph 0.2 mph 96% 0 in 0.00 W/m2
00:45 65 °F 63.8 °F 30.10 in Calm     96% 0 in 0.00 W/m2
00:50 64.9 °F 63.7 °F 30.10 in Calm     96% 0 in 0.00 W/m2
00:55 64.9 °F 63.7 °F 30.10 in ENE 3.5 mph 0.4 mph 96% 0 in 0.00 W/m2
01:00 64.9 °F 63.7 °F 30.10 in Calm     96% 0 in 0.00 W/m2
01:05 64.9 °F 63.7 °F 30.10 in Calm     96% 0 in 0.00 W/m2
01:10 64.9 °F 63.7 °F 30.11 in Calm     96% 0 in 0.00 W/m2
01:15 64.9 °F 63.7 °F 30.11 in Calm     96% 0 in 0.00 W/m2
01:20 64.9 °F 63.7 °F 30.11 in Calm     96% 0 in 0.00 W/m2
01:25 64.9 °F 63.7 °F 30.11 in Calm     96% 0 in 0.00 W/m2
01:30 64.8 °F 63.6 °F 30.11 in Calm     96% 0 in 0.00 W/m2
01:35 64.8 °F 63.6 °F 30.11 in ENE 2.3 mph 0.1 mph 96% 0 in 0.00 W/m2
01:40 64.7 °F 63.5 °F 30.11 in Calm     96% 0 in 0.00 W/m2
01:45 64.7 °F 63.5 °F 30.11 in Calm     96% 0 in 0.00 W/m2
01:50 64.7 °F 63.5 °F 30.11 in Calm     96% 0 in 0.00 W/m2
01:55 64.6 °F 63.4 °F 30.11 in Calm     96% 0 in 0.00 W/m2
02:00 64.5 °F 63.3 °F 30.11 in Calm     96% 0 in 0.00 W/m2
02:05 64.4 °F 63.2 °F 30.11 in Calm     96% 0 in 0.00 W/m2
02:10 64.3 °F 63.1 °F 30.11 in Calm     96% 0 in 0.00 W/m2
02:15 64.2 °F 63 °F 30.11 in Calm     96% 0 in 0.00 W/m2
02:20 64.2 °F 63 °F 30.11 in Calm     96% 0 in 0.00 W/m2
02:25 64.1 °F 62.9 °F 30.11 in ENE 2.3 mph 0.2 mph 96% 0 in 0.00 W/m2
02:30 64 °F 62.8 °F 30.11 in Calm     96% 0 in 0.00 W/m2
02:35 63.8 °F 62.6 °F 30.11 in Calm     96% 0 in 0.00 W/m2
02:40 63.7 °F 62.5 °F 30.11 in Calm     96% 0 in 0.00 W/m2
02:45 63.6 °F 62.4 °F 30.11 in Calm     96% 0 in 0.00 W/m2
02:50 63.6 °F 62.4 °F 30.11 in Calm     96% 0 in 0.00 W/m2
02:55 63.6 °F 62.4 °F 30.11 in Calm     96% 0 in 0.00 W/m2
03:00 63.8 °F 62.6 °F 30.11 in Calm     96% 0 in 0.00 W/m2
03:05 63.8 °F 62.6 °F 30.11 in NE 1.2 mph   96% 0 in 0.00 W/m2
03:10 63.8 °F 62.6 °F 30.11 in Calm     96% 0 in 0.00 W/m2
03:15 63.8 °F 62.6 °F 30.11 in Calm     96% 0 in 0.00 W/m2
03:20 63.7 °F 62.5 °F 30.11 in Calm     96% 0 in 0.00 W/m2
03:25 63.8 °F 62.6 °F 30.11 in ENE 2.3 mph 0.2 mph 96% 0 in 0.00 W/m2
03:30 63.8 °F 62.6 °F 30.11 in East 3 mph 0.1 mph 96% 0 in 0.00 W/m2
03:35 63.8 °F 62.6 °F 30.11 in NE 3.5 mph 0.7 mph 96% 0 in 0.00 W/m2
03:40 63.8 °F 62.6 °F 30.11 in Calm     96% 0 in 0.00 W/m2
03:45 63.7 °F 62.5 °F 30.11 in Calm     96% 0 in 0.00 W/m2
03:50 63.7 °F 62.5 °F 30.12 in ENE 4.6 mph 1.7 mph 96% 0 in 0.00 W/m2
03:55 63.7 °F 62.5 °F 30.12 in Calm     96% 0 in 0.00 W/m2
04:00 63.7 °F 62.5 °F 30.12 in Calm     96% 0 in 0.00 W/m2
04:05 63.6 °F 62.4 °F 30.12 in ENE 2.3 mph 0.3 mph 96% 0 in 0.00 W/m2
04:10 63.5 °F 62.3 °F 30.12 in Calm     96% 0 in 0.00 W/m2
04:15 63.5 °F 62.3 °F 30.12 in Calm     96% 0 in 0.00 W/m2
04:20 63.5 °F 62.3 °F 30.12 in Calm     96% 0 in 0.00 W/m2
04:25 63.6 °F 62.4 °F 30.12 in ENE 3.5 mph 1.3 mph 96% 0 in 0.00 W/m2
04:30 63.6 °F 62.4 °F 30.12 in Calm     96% 0 in 0.00 W/m2
04:35 63.6 °F 62.4 °F 30.11 in ENE 3.5 mph 0.4 mph 96% 0 in 0.00 W/m2
04:40 63.6 °F 62.4 °F 30.11 in ENE 1.2 mph 0.1 mph 96% 0 in 0.00 W/m2
04:45 63.5 °F 62.3 °F 30.12 in Calm     96% 0 in 0.00 W/m2
04:50 63.5 °F 62.3 °F 30.12 in Calm     96% 0 in 0.00 W/m2
04:55 63.5 °F 62.3 °F 30.11 in Calm     96% 0 in 0.00 W/m2
05:00 63.5 °F 62.3 °F 30.12 in ENE 2 mph   96% 0 in 0.00 W/m2
05:05 63.5 °F 62.3 °F 30.12 in Calm     96% 0 in 0.00 W/m2
05:10 63.4 °F 62.2 °F 30.12 in Calm     96% 0 in 0.00 W/m2
05:15 63.4 °F 62.2 °F 30.12 in ENE 3.5 mph 1.7 mph 96% 0 in 0.00 W/m2
05:20 63.4 °F 62.2 °F 30.12 in Calm     96% 0 in 0.00 W/m2
05:25 63.4 °F 62.2 °F 30.13 in Calm     96% 0 in 0.00 W/m2
05:30 63.4 °F 62.2 °F 30.13 in East 3.5 mph 0.8 mph 96% 0 in 0.00 W/m2
05:35 63.4 °F 62.2 °F 30.13 in Calm     96% 0 in 0.00 W/m2
05:40 63.4 °F 62.2 °F 30.12 in Calm     96% 0 in 0.00 W/m2
05:45 63.3 °F 62.1 °F 30.12 in Calm     96% 0 in 0.00 W/m2
05:50 63.3 °F 62.1 °F 30.12 in ENE 3.5 mph 0.3 mph 96% 0 in 0.00 W/m2
05:55 63.2 °F 62 °F 30.13 in Calm     96% 0 in 0.00 W/m2
06:00 63.3 °F 62.1 °F 30.13 in Calm     96% 0 in 0.00 W/m2
06:05 63.2 °F 62 °F 30.13 in Calm     96% 0 in 0.00 W/m2
06:10 63.2 °F 62 °F 30.13 in Calm     96% 0 in 0.00 W/m2
06:15 63.2 °F 62 °F 30.13 in Calm     96% 0 in 0.00 W/m2
06:20 63.2 °F 62 °F 30.13 in Calm     96% 0 in 0.00 W/m2
06:25 63.2 °F 62 °F 30.13 in Calm     96% 0 in 0.00 W/m2
06:30 63.2 °F 62 °F 30.13 in Calm     96% 0 in 0.00 W/m2
06:35 63.2 °F 62 °F 30.13 in Calm     96% 0 in 0.00 W/m2
06:40 63.2 °F 62 °F 30.13 in ENE 3.5 mph 0.6 mph 96% 0 in 0.00 W/m2
06:45 63.2 °F 62 °F 30.13 in ENE 4.6 mph 1.8 mph 96% 0 in 5.00 W/m2
06:50 63.2 °F 62 °F 30.13 in Calm     96% 0 in 5.00 W/m2
06:55 63.3 °F 62.1 °F 30.13 in Calm     96% 0 in 9.00 W/m2
07:00 63.3 °F 62.1 °F 30.14 in Calm     96% 0 in 9.00 W/m2
07:05 63.3 °F 62.1 °F 30.14 in Calm     96% 0 in 12.00 W/m2
07:10 63.3 °F 62.1 °F 30.14 in Calm     96% 0 in 14.00 W/m2
07:15 63.4 °F 62.2 °F 30.14 in Calm     96% 0 in 16.00 W/m2
07:20 63.4 °F 62.2 °F 30.14 in Calm     96% 0 in 16.00 W/m2
07:25 63.4 °F 62.2 °F 30.14 in Calm     96% 0 in 14.00 W/m2
07:30 63.5 °F 62.3 °F 30.14 in Calm     96% 0 in 16.00 W/m2
07:35 63.5 °F 62.3 °F 30.14 in Calm     96% 0 in 18.00 W/m2
07:40 63.6 °F 62.4 °F 30.14 in Calm     96% 0 in 16.00 W/m2
07:45 63.6 °F 62.4 °F 30.15 in Calm     96% 0 in 19.00 W/m2
07:50 63.7 °F 62.5 °F 30.15 in Calm     96% 0 in 26.00 W/m2
07:55 63.8 °F 62.6 °F 30.15 in Calm     96% 0 in 33.00 W/m2
08:00 63.8 °F 62.6 °F 30.15 in East 3.5 mph 0.9 mph 96% 0 in 44.00 W/m2
08:05 63.8 °F 62.6 °F 30.15 in East 1 mph   96% 0 in 77.00 W/m2
08:10 63.9 °F 62.7 °F 30.15 in East 4.6 mph 1 mph 96% 0 in 49.00 W/m2
08:15 63.9 °F 62.7 °F 30.15 in Calm     96% 0 in 63.00 W/m2
08:20 64.1 °F 62.9 °F 30.15 in Calm     96% 0 in 86.00 W/m2
08:25 64.3 °F 63.1 °F 30.15 in East 1.2 mph   96% 0 in 111.00 W/m2
08:30 64.4 °F 63.2 °F 30.16 in Calm     96% 0 in 90.00 W/m2
08:35 64.5 °F 63.3 °F 30.16 in East 4.6 mph 1.6 mph 96% 0 in 132.00 W/m2
08:40 64.5 °F 63.3 °F 30.16 in Calm     96% 0 in 107.00 W/m2
08:45 64.6 °F 63.4 °F 30.16 in Calm     96% 0 in 128.00 W/m2
08:50 64.9 °F 63.7 °F 30.16 in Calm     96% 0 in 120.00 W/m2
08:55 65 °F 63.8 °F 30.16 in Calm     96% 0 in 139.00 W/m2
09:00 65 °F 63.8 °F 30.15 in ESE 4.6 mph 1.6 mph 96% 0 in 167.00 W/m2
09:05 65.1 °F 63.9 °F 30.15 in East 3.5 mph 1.1 mph 96% 0 in 139.00 W/m2
09:10 65.2 °F 64 °F 30.15 in Calm     96% 0 in 151.00 W/m2
09:15 65.4 °F 64.2 °F 30.15 in SE 3.5 mph 0.7 mph 96% 0 in 153.00 W/m2
09:20 65.5 °F 64.3 °F 30.15 in East 6.9 mph 1.4 mph 96% 0 in 158.00 W/m2
09:25 65.6 °F 64.4 °F 30.16 in East 5.8 mph 1.3 mph 96% 0 in 146.00 W/m2
09:30 65.8 °F 64.6 °F 30.15 in East 4.6 mph 0.5 mph 96% 0 in 181.00 W/m2
09:35 66 °F 64.8 °F 30.16 in Calm     96% 0 in 178.00 W/m2
09:40 66.3 °F 65.1 °F 30.16 in ENE 4.6 mph 3 mph 96% 0 in 160.00 W/m2
09:45 66.3 °F 65.1 °F 30.16 in East 4.6 mph 1.3 mph 96% 0 in 188.00 W/m2
09:50 66.4 °F 65.2 °F 30.16 in ESE 4 mph 1.7 mph 96% 0 in 253.00 W/m2
09:55 66.8 °F 65.6 °F 30.16 in East 5.8 mph 2.4 mph 96% 0 in 211.00 W/m2
10:00 67 °F 65.8 °F 30.16 in East 4.6 mph 1.3 mph 96% 0 in 223.00 W/m2
10:05 67.4 °F 66.2 °F 30.16 in ESE 5.8 mph 1.6 mph 96% 0 in 243.00 W/m2
10:10 67.7 °F 66.5 °F 30.16 in Calm     96% 0 in 251.00 W/m2
10:15 68 °F 66.5 °F 30.16 in Calm     95% 0 in 246.00 W/m2
10:20 68.1 °F 66.6 °F 30.16 in Calm     95% 0 in 262.00 W/m2
10:25 68.3 °F 66.5 °F 30.16 in Calm     94% 0 in 267.00 W/m2
10:30 68.6 °F 66.8 °F 30.16 in ENE 2.3 mph 0.1 mph 94% 0 in 257.00 W/m2
10:35 68.8 °F 67 °F 30.16 in Calm     94% 0 in 258.00 W/m2
10:40 69.1 °F 67 °F 30.16 in SE 6.9 mph 4.1 mph 93% 0 in 285.00 W/m2
10:45 69.4 °F 67.3 °F 30.16 in SE 3.5 mph 0.7 mph 93% 0 in 336.00 W/m2
10:50 69.7 °F 67.6 °F 30.16 in ESE 1.2 mph   93% 0 in 334.00 W/m2
10:55 70.3 °F 67.9 °F 30.16 in Calm     92% 0 in 390.00 W/m2
11:00 70.7 °F 67.9 °F 30.16 in Calm     91% 0 in 413.00 W/m2
11:05 71.2 °F 68.8 °F 30.16 in ENE 3.5 mph 0.5 mph 92% 0 in 369.00 W/m2
11:10 71.9 °F 69.1 °F 30.16 in ENE 1.2 mph 0.1 mph 91% 0 in 589.00 W/m2
11:15 72.3 °F 68.9 °F 30.16 in ENE 8 mph 1.2 mph 89% 0 in 434.00 W/m2
11:20 73 °F 69.6 °F 30.16 in Calm     89% 0 in 406.00 W/m2
11:25 73.5 °F 69.7 °F 30.15 in Calm     88% 0 in 327.00 W/m2
11:30 73.8 °F 69.3 °F 30.15 in East 1.2 mph   86% 0 in 438.00 W/m2
11:35 73.7 °F 68.9 °F 30.15 in Calm     85% 0 in 334.00 W/m2
11:40 74.3 °F 69.8 °F 30.15 in ENE 3.5 mph 1 mph 86% 0 in 809.00 W/m2
11:45 74.6 °F 69.8 °F 30.15 in SE 1 mph   85% 0 in 812.00 W/m2
11:50 74.9 °F 69.7 °F 30.14 in East 2.3 mph 0.1 mph 84% 0 in 728.00 W/m2
11:55 75.6 °F 70.4 °F 30.14 in East 3.5 mph 0.4 mph 84% 0 in 288.00 W/m2
12:00 76.2 °F 70.3 °F 30.14 in ESE 7 mph 4 mph 82% 0 in 793.00 W/m2
12:05 76.8 °F 70.2 °F 30.14 in ENE 5.8 mph 1.9 mph 80% 0 in 701.00 W/m2
12:10 76.8 °F 70.5 °F 30.14 in East 5 mph 1.4 mph 81% 0 in 396.00 W/m2
12:15 77 °F 70.7 °F 30.14 in ENE 3.5 mph 0.6 mph 81% 0 in 394.00 W/m2
12:20 77.4 °F 70.7 °F 30.14 in NE 6 mph 2.4 mph 80% 0 in 399.00 W/m2
12:25 76.9 °F 71 °F 30.13 in NNE 6.9 mph 3.6 mph 82% 0 in 570.00 W/m2
12:30 77.4 °F 71.5 °F 30.13 in ENE 1.2 mph 0.1 mph 82% 0 in 751.00 W/m2
12:35 78.1 °F 71.1 °F 30.13 in NNE 3.5 mph 0.7 mph 79% 0 in 821.00 W/m2
12:40 78.1 °F 71.1 °F 30.13 in NNE 3.5 mph 0.9 mph 79% 0 in 362.00 W/m2
12:45 78.3 °F 70.9 °F 30.13 in Calm     78% 0 in 320.00 W/m2
12:50 78.6 °F 71.2 °F 30.13 in Calm     78% 0 in 561.00 W/m2
12:55 79.1 °F 72 °F 30.13 in ENE 1 mph   79% 0 in 844.00 W/m2
13:00 79.5 °F 70.1 °F 30.13 in ESE 3.5 mph 0.2 mph 73% 0 in 341.00 W/m2
13:05 79.1 °F 70.1 °F 30.13 in East 9.2 mph 6.3 mph 74% 0 in 362.00 W/m2
13:10 79.1 °F 70.9 °F 30.12 in SE 5.8 mph 2.8 mph 76% 0 in 833.00 W/m2
13:15 79.4 °F 70.4 °F 30.12 in ESE 5.8 mph 3.3 mph 74% 0 in 807.00 W/m2
13:20 79.5 °F 70.5 °F 30.12 in SE 3.5 mph 1.6 mph 74% 0 in 817.00 W/m2
13:25 79.5 °F 70.5 °F 30.12 in East 4.6 mph 3 mph 74% 0 in 842.00 W/m2
13:30 80.1 °F 71.1 °F 30.12 in ESE 9.2 mph 5.5 mph 74% 0 in 775.00 W/m2
13:35 80.3 °F 70.4 °F 30.11 in East 8.1 mph 2.6 mph 72% 0 in 786.00 W/m2
13:40 80.6 °F 70.3 °F 30.11 in Calm     71% 0 in 759.00 W/m2
13:45 80.7 °F 70.4 °F 30.11 in Calm     71% 0 in 782.00 W/m2
13:50 80.6 °F 70.7 °F 30.11 in East 1.2 mph 0.2 mph 72% 0 in 786.00 W/m2
13:55 81 °F 70.3 °F 30.11 in ENE 2.3 mph 0.1 mph 70% 0 in 837.00 W/m2
14:00 80.6 °F 70.3 °F 30.11 in East 3.5 mph 0.4 mph 71% 0 in 251.00 W/m2
14:05 80.4 °F 70.5 °F 30.10 in East 6.9 mph 2.2 mph 72% 0 in 733.00 W/m2
14:10 80.6 °F 69.5 °F 30.10 in East 6.9 mph 2.1 mph 69% 0 in 731.00 W/m2
14:15 80.9 °F 69.8 °F 30.10 in ENE 8.1 mph 5.7 mph 69% 0 in 708.00 W/m2
14:20 80.8 °F 69.2 °F 30.10 in ESE 9.2 mph 5.2 mph 68% 0 in 722.00 W/m2
14:25 80.7 °F 69.6 °F 30.10 in SE 6 mph 2.5 mph 69% 0 in 700.00 W/m2
14:30 80.6 °F 69.9 °F 30.10 in North 8.1 mph 4.8 mph 70% 0 in 693.00 W/m2
14:35 80.6 °F 69.5 °F 30.10 in East 3.5 mph 0.7 mph 69% 0 in 649.00 W/m2
14:40 80.7 °F 70 °F 30.09 in East 3.5 mph 1.7 mph 70% 0 in 686.00 W/m2
14:45 80.7 °F 70.4 °F 30.09 in East 8.1 mph 4.1 mph 71% 0 in 628.00 W/m2
14:50 80.7 °F 70 °F 30.09 in ESE 6.9 mph 3.6 mph 70% 0 in 529.00 W/m2
14:55 80.2 °F 69.5 °F 30.09 in North 8.1 mph 4.8 mph 70% 0 in 504.00 W/m2
15:00 79.5 °F 69.3 °F 30.09 in East 6.9 mph 3.5 mph 71% 0 in 186.00 W/m2
15:05 79.3 °F 69.5 °F 30.09 in SE 6 mph 2.3 mph 72% 0 in 624.00 W/m2
15:10 79.4 °F 69.6 °F 30.09 in North 6.9 mph 4 mph 72% 0 in 605.00 W/m2
15:15 79.5 °F 69.7 °F 30.09 in SSE 8.1 mph 5.8 mph 72% 0 in 475.00 W/m2
15:20 79.3 °F 69.5 °F 30.09 in SE 8.1 mph 5.2 mph 72% 0 in 517.00 W/m2
15:25 79.3 °F 69.1 °F 30.09 in East 6.9 mph 4.4 mph 71% 0 in 538.00 W/m2
15:30 79.5 °F 69.7 °F 30.09 in North 7 mph 1.6 mph 72% 0 in 543.00 W/m2
15:35 79.4 °F 69.2 °F 30.09 in North 5.8 mph 3.8 mph 71% 0 in 522.00 W/m2
15:40 79.5 °F 69.7 °F 30.09 in North 6.9 mph 2.5 mph 72% 0 in 524.00 W/m2
15:45 79.6 °F 69.4 °F 30.09 in North 8 mph 3.4 mph 71% 0 in 522.00 W/m2
15:50 79.6 °F 68.5 °F 30.09 in East 4.6 mph 1.7 mph 69% 0 in 499.00 W/m2
15:55 79.6 °F 69 °F 30.09 in East 4.6 mph 2.3 mph 70% 0 in 475.00 W/m2
16:00 79.6 °F 68.1 °F 30.09 in North 6 mph 2.9 mph 68% 0 in 411.00 W/m2
16:05 79.4 °F 67.9 °F 30.08 in East 3.5 mph 0.7 mph 68% 0 in 461.00 W/m2
16:10 79.2 °F 67.7 °F 30.08 in North 9.2 mph 4.6 mph 68% 0 in 462.00 W/m2
16:15 79.1 °F 68.5 °F 30.08 in East 8.1 mph 4.4 mph 70% 0 in 443.00 W/m2
16:20 78.8 °F 68.6 °F 30.08 in ESE 4.6 mph 2.5 mph 71% 0 in 411.00 W/m2
16:25 78.8 °F 69.8 °F 30.08 in North 6.9 mph 2.6 mph 74% 0 in 410.00 W/m2
16:30 78.7 °F 67.7 °F 30.07 in ESE 9.2 mph 2.4 mph 69% 0 in 397.00 W/m2
16:35 78.6 °F 67.6 °F 30.07 in East 6.9 mph 5.1 mph 69% 0 in 388.00 W/m2
16:40 78.4 °F 68.6 °F 30.07 in East 2 mph   72% 0 in 369.00 W/m2
16:45 78.2 °F 66.8 °F 30.07 in East 5.8 mph 2.8 mph 68% 0 in 334.00 W/m2
16:50 77.8 °F 66.4 °F 30.07 in SE 5.8 mph 1.3 mph 68% 0 in 338.00 W/m2
16:55 77.8 °F 67.2 °F 30.07 in Calm     70% 0 in 332.00 W/m2
17:00 77.8 °F 66.4 °F 30.07 in ESE 4.6 mph 2.9 mph 68% 0 in 281.00 W/m2
17:05 77.4 °F 66.4 °F 30.07 in North 9.2 mph 4.9 mph 69% 0 in 239.00 W/m2
17:10 77 °F 66.5 °F 30.07 in East 6.9 mph 1.3 mph 70% 0 in 236.00 W/m2
17:15 76.8 °F 66.7 °F 30.07 in East 4.6 mph 1.7 mph 71% 0 in 239.00 W/m2
17:20 76.7 °F 67 °F 30.08 in ESE 4.6 mph 1.1 mph 72% 0 in 206.00 W/m2
17:25 76.4 °F 67.1 °F 30.07 in ESE 3.5 mph 1.8 mph 73% 0 in 169.00 W/m2
17:30 76.2 °F 67.3 °F 30.07 in East 6 mph 1.1 mph 74% 0 in 141.00 W/m2
17:35 75.7 °F 66.8 °F 30.07 in Calm     74% 0 in 120.00 W/m2
17:40 75.4 °F 66.9 °F 30.07 in Calm     75% 0 in 116.00 W/m2
17:45 75.1 °F 67 °F 30.07 in ESE 2.3 mph 0.2 mph 76% 0 in 111.00 W/m2
17:50 74.7 °F 67 °F 30.07 in Calm     77% 0 in 114.00 W/m2
17:55 74.5 °F 66.8 °F 30.07 in Calm     77% 0 in 97.00 W/m2
18:00 74.2 °F 66.9 °F 30.07 in Calm     78% 0 in 79.00 W/m2
18:05 73.8 °F 66.9 °F 30.07 in Calm     79% 0 in 53.00 W/m2
18:10 73.5 °F 66.6 °F 30.07 in Calm     79% 0 in 47.00 W/m2
18:15 73.2 °F 66.7 °F 30.07 in Calm     80% 0 in 44.00 W/m2
18:20 72.9 °F 66.7 °F 30.07 in Calm     81% 0 in 42.00 W/m2
18:25 72.4 °F 66.6 °F 30.07 in Calm     82% 0 in 35.00 W/m2
18:30 71.9 °F 65.8 °F 30.07 in Calm     81% 0 in 32.00 W/m2
18:35 71.6 °F 65.5 °F 30.07 in Calm     81% 0 in 28.00 W/m2
18:40 71.2 °F 65.1 °F 30.07 in Calm     81% 0 in 23.00 W/m2
18:45 70.9 °F 64.8 °F 30.07 in Calm     81% 0 in 18.00 W/m2
18:50 70.5 °F 64.7 °F 30.08 in Calm     82% 0 in 11.00 W/m2
18:55 70.2 °F 64.4 °F 30.08 in Calm     82% 0 in 7.00 W/m2
19:00 69.8 °F 64.4 °F 30.08 in Calm     83% 0 in 0.00 W/m2
19:05 69.4 °F 64.4 °F 30.08 in Calm     84% 0 in 0.00 W/m2
19:10 69 °F 64 °F 30.08 in Calm     84% 0 in 0.00 W/m2
19:15 68.6 °F 63.9 °F 30.08 in Calm     85% 0 in 0.00 W/m2
19:20 68.2 °F 63.5 °F 30.07 in Calm     85% 0 in 0.00 W/m2
19:25 67.7 °F 63.4 °F 30.07 in Calm     86% 0 in 0.00 W/m2
19:30 67.2 °F 63.2 °F 30.08 in Calm     87% 0 in 0.00 W/m2
19:35 66.8 °F 63.1 °F 30.08 in Calm     88% 0 in 0.00 W/m2
19:40 66.5 °F 62.8 °F 30.08 in Calm     88% 0 in 0.00 W/m2
19:45 66.2 °F 62.5 °F 30.08 in Calm     88% 0 in 0.00 W/m2
19:50 66 °F 62.7 °F 30.08 in Calm     89% 0 in 0.00 W/m2
19:55 65.8 °F 62.5 °F 30.08 in Calm     89% 0 in 0.00 W/m2
20:00 65.4 °F 61.8 °F 30.08 in Calm     88% 0 in 0.00 W/m2
20:05 65.2 °F 62.2 °F 30.08 in Calm     90% 0 in 0.00 W/m2
20:10 65 °F 62 °F 30.08 in Calm     90% 0 in 0.00 W/m2
20:15 64.7 °F 62 °F 30.08 in Calm     91% 0 in 0.00 W/m2
20:20 64.5 °F 61.8 °F 30.08 in Calm     91% 0 in 0.00 W/m2
20:25 64.4 °F 62 °F 30.08 in Calm     92% 0 in 0.00 W/m2
20:30 64.2 °F 61.8 °F 30.08 in Calm     92% 0 in 0.00 W/m2
20:35 64.1 °F 61.7 °F 30.08 in Calm     92% 0 in 0.00 W/m2
20:40 63.9 °F 61.5 °F 30.09 in Calm     92% 0 in 0.00 W/m2
20:45 63.8 °F 61.7 °F 30.09 in Calm     93% 0 in 0.00 W/m2
20:50 63.9 °F 61.8 °F 30.09 in Calm     93% 0 in 0.00 W/m2
20:55 63.8 °F 61.7 °F 30.09 in Calm     93% 0 in 0.00 W/m2
21:00 63.7 °F 61.6 °F 30.09 in Calm     93% 0 in 0.00 W/m2
21:05 63.6 °F 61.5 °F 30.09 in Calm     93% 0 in 0.00 W/m2
21:10 63.6 °F 61.5 °F 30.09 in Calm     93% 0 in 0.00 W/m2
21:15 63.6 °F 61.5 °F 30.09 in Calm     93% 0 in 0.00 W/m2
21:20 63.6 °F 61.5 °F 30.09 in Calm     93% 0 in 0.00 W/m2
21:25 63.3 °F 61.2 °F 30.09 in Calm     93% 0 in 0.00 W/m2
21:30 63.2 °F 61.1 °F 30.09 in Calm     93% 0 in 0.00 W/m2
21:35 63 °F 60.9 °F 30.09 in Calm     93% 0 in 0.00 W/m2
21:40 62.9 °F 61.1 °F 30.09 in Calm     94% 0 in 0.00 W/m2
21:45 62.9 °F 61.1 °F 30.09 in Calm     94% 0 in 0.00 W/m2
21:50 62.8 °F 61 °F 30.09 in Calm     94% 0 in 0.00 W/m2
21:55 62.7 °F 60.9 °F 30.09 in Calm     94% 0 in 0.00 W/m2
22:00 62.6 °F 60.8 °F 30.09 in Calm     94% 0 in 0.00 W/m2
22:05 62.5 °F 60.7 °F 30.09 in Calm     94% 0 in 0.00 W/m2
22:10 62.2 °F 60.5 °F 30.09 in Calm     94% 0 in 0.00 W/m2
22:15 62 °F 60.3 °F 30.09 in Calm     94% 0 in 0.00 W/m2
22:20 61.8 °F 60.1 °F 30.09 in Calm     94% 0 in 0.00 W/m2
22:25 61.7 °F 60 °F 30.09 in Calm     94% 0 in 0.00 W/m2
22:30 61.6 °F 59.9 °F 30.09 in Calm     94% 0 in 0.00 W/m2
22:35 61.5 °F 59.8 °F 30.09 in Calm     94% 0 in 0.00 W/m2
22:40 61.5 °F 60.1 °F 30.09 in Calm     95% 0 in 0.00 W/m2
22:45 61.6 °F 60.2 °F 30.09 in Calm     95% 0 in 0.00 W/m2
22:50 61.8 °F 60.4 °F 30.09 in Calm     95% 0 in 0.00 W/m2
22:55 61.8 °F 60.4 °F 30.09 in Calm     95% 0 in 0.00 W/m2
23:00 62 °F 60.6 °F 30.09 in Calm     95% 0 in 0.00 W/m2
23:05 62 °F 60.6 °F 30.09 in Calm     95% 0 in 0.00 W/m2
23:10 62 °F 60.3 °F 30.09 in Calm     94% 0 in 0.00 W/m2
23:15 61.8 °F 60.1 °F 30.09 in Calm     94% 0 in 0.00 W/m2
23:20 61.8 °F 60.1 °F 30.09 in Calm     94% 0 in 0.00 W/m2
23:25 61.7 °F 60 °F 30.09 in Calm     94% 0 in 0.00 W/m2
23:30 61.3 °F 59.6 °F 30.09 in Calm     94% 0 in 0.00 W/m2
23:35 61 °F 59.3 °F 30.09 in Calm     94% 0 in 0.00 W/m2
23:40 60.9 °F 59.2 °F 30.09 in Calm     94% 0 in 0.00 W/m2
23:45 60.9 °F 59.5 °F 30.09 in Calm     95% 0 in 0.00 W/m2
23:50 60.8 °F 59.4 °F 30.09 in Calm     95% 0 in 0.00 W/m2
23:55 60.7 °F 59 °F 30.09 in Calm     94% 0 in 0.00 W/m2
Bourbonnais, Illinois, USA
Compliments of Weather Underground - 4 mb